Oakland, CA

7:13 PM PST on December 24, 2014 (GMT -0800)
Hayward Executive | Change Station
CLOSE
Current Station
Airport
Location: Hayward,
Elevation: 46 ft
Nearby Weather Stations

Elev 46 ft 37.66 °N, 122.12 °W | Updated 19 minutes ago

Clear
Clear
48 °F
Feels Like 48 °F
N
16
Wind Variable Wind from NW

Today
High -- | Low -- °F
--% Chance of Precip.
Yesterday
High -- | Low -- °F
Precip. -- in
7:22 AM 4:55 PM
Waxing Crescent, 13% visible
Pressure 30.03 in
Visibility 10.0 miles
Clouds Clear
Dew Point 43 °F
Humidity 83%
Rainfall 0.06 in
Snow Depth Not available.
UV 0 out of 12
Pollen 3.50 out of 12
Air Quality Not available.
Flu Activity Not available.
METAR KHWD 250254Z 32014KT 10SM CLR 09/06 A3000 RMK AO2 SLP169 T00890061 53010

More Conditions Fewer Conditions

Pressure 30.03 in
Visibility 10.0 miles
Clouds Clear
Dew Point 43 °F
Humidity 83%
Rainfall 0.06 in
Snow Depth Not available.
UV 0 out of 12
Pollen 3.50 out of 12
Air Quality Not available.
Flu Activity Not available.
METAR KHWD 250254Z 32014KT 10SM CLR 09/06 A3000 RMK AO2 SLP169 T00890061 53010

More Conditions Fewer Conditions

10-Day Weather Forecast

Almanac

Astronomy

Dec. 24, 2014 Rise Set
Actual Time
Civil Twilight
Nautical Twilight
Astronomical Twilight
Moon
Length of Visible Light
Length of Day
Tomorrow will be .
, % of the Moon is Illuminated

Today's Extremes

State Highs State Lows

Community

WunderPhotos

Upload Photos

1,780,224 photos uploaded!

WunderBlogs® & News

Nearby

Air Quality

  Air Quality AQ Index Pollutant
Not available.

Snow Depth

Station Depth Elevation

Earthquake Activity

City Distance Mag. Time & Date
Minimum magnitude displayed is 2.5.

Coastal Water Temperatures

Place Temperature

Nearby Weather Stations